sensor_id;sensor_type;location;lat;lon;timestamp;pressure;altitude;pressure_sealevel;temperature;humidity
62712;BME280;48772;55.586;37.730;2023-03-23T04:55:44;98971.19;;;6.29;100.00
62712;BME280;48772;55.586;37.730;2023-03-23T04:58:14;98962.38;;;6.41;100.00
62712;BME280;48772;55.586;37.730;2023-03-23T05:01:04;98971.88;;;6.67;100.00
62712;BME280;48772;55.586;37.730;2023-03-23T05:03:32;98975.78;;;6.85;100.00
62712;BME280;48772;55.586;37.730;2023-03-23T05:06:02;98935.75;;;6.88;100.00
62712;BME280;48772;55.586;37.730;2023-03-23T05:08:28;98969.06;;;7.14;100.00
62712;BME280;48772;55.586;37.730;2023-03-23T05:10:56;98966.03;;;7.08;100.00
62712;BME280;48772;55.586;37.730;2023-03-23T05:13:24;98971.16;;;7.44;100.00
62712;BME280;48772;55.586;37.730;2023-03-23T05:15:54;98963.31;;;7.53;100.00
62712;BME280;48772;55.586;37.730;2023-03-23T05:18:20;98972.00;;;7.55;100.00
62712;BME280;48772;55.586;37.730;2023-03-23T05:20:46;98940.88;;;7.57;100.00
62712;BME280;48772;55.586;37.730;2023-03-23T05:23:17;98974.66;;;7.66;100.00
62712;BME280;48772;55.586;37.730;2023-03-23T05:25:57;98946.19;;;7.57;100.00
62712;BME280;48772;55.586;37.730;2023-03-23T05:28:29;98958.28;;;8.04;100.00
62712;BME280;48772;55.586;37.730;2023-03-23T05:31:21;98970.72;;;8.14;100.00
62712;BME280;48772;55.586;37.730;2023-03-23T05:33:48;98965.88;;;8.19;100.00
62712;BME280;48772;55.586;37.730;2023-03-23T05:36:19;98957.91;;;8.30;100.00
62712;BME280;48772;55.586;37.730;2023-03-23T05:39:03;98984.47;;;8.62;100.00
62712;BME280;48772;55.586;37.730;2023-03-23T05:41:48;98972.84;;;8.74;100.00
62712;BME280;48772;55.586;37.730;2023-03-23T05:44:15;98963.03;;;8.95;100.00
62712;BME280;48772;55.586;37.730;2023-03-23T05:46:52;98971.94;;;8.84;100.00
62712;BME280;48772;55.586;37.730;2023-03-23T05:49:18;98983.44;;;9.05;100.00
62712;BME280;48772;55.586;37.730;2023-03-23T05:51:46;98985.41;;;8.92;100.00
62712;BME280;48772;55.586;37.730;2023-03-23T05:54:13;98974.28;;;9.19;100.00
62712;BME280;48772;55.586;37.730;2023-03-23T05:56:42;98975.97;;;9.50;100.00
62712;BME280;48772;55.586;37.730;2023-03-23T05:59:18;98953.91;;;9.29;100.00
62712;BME280;48772;55.586;37.730;2023-03-23T06:01:47;98978.91;;;9.47;100.00
62712;BME280;48772;55.586;37.730;2023-03-23T06:04:13;98978.75;;;9.48;100.00
62712;BME280;48772;55.586;37.730;2023-03-23T06:06:51;98941.41;;;9.59;100.00
62712;BME280;48772;55.586;37.730;2023-03-23T06:09:20;98973.03;;;10.13;100.00
62712;BME280;48772;55.586;37.730;2023-03-23T06:12:09;98990.13;;;10.20;100.00
62712;BME280;48772;55.586;37.730;2023-03-23T06:14:58;98981.34;;;9.89;100.00
62712;BME280;48772;55.586;37.730;2023-03-23T06:17:38;98955.09;;;9.75;100.00
62712;BME280;48772;55.586;37.730;2023-03-23T06:20:05;98987.34;;;9.91;100.00
62712;BME280;48772;55.586;37.730;2023-03-23T06:22:38;98981.44;;;10.08;100.00
62712;BME280;48772;55.586;37.730;2023-03-23T06:25:11;98946.81;;;10.08;100.00
62712;BME280;48772;55.586;37.730;2023-03-23T06:27:41;98961.00;;;10.28;100.00
62712;BME280;48772;55.586;37.730;2023-03-23T06:30:08;98982.06;;;10.60;100.00
62712;BME280;48772;55.586;37.730;2023-03-23T06:32:34;98950.34;;;10.76;100.00
62712;BME280;48772;55.586;37.730;2023-03-23T06:35:02;98967.47;;;10.54;100.00
62712;BME280;48772;55.586;37.730;2023-03-23T06:37:35;98952.03;;;10.48;100.00
62712;BME280;48772;55.586;37.730;2023-03-23T06:40:10;98975.06;;;10.59;100.00
62712;BME280;48772;55.586;37.730;2023-03-23T06:42:47;98970.84;;;10.85;100.00
62712;BME280;48772;55.586;37.730;2023-03-23T06:45:33;98968.59;;;10.80;100.00
62712;BME280;48772;55.586;37.730;2023-03-23T06:48:17;98972.66;;;10.94;100.00
62712;BME280;48772;55.586;37.730;2023-03-23T06:50:44;98964.28;;;11.35;100.00
62712;BME280;48772;55.586;37.730;2023-03-23T06:53:12;98977.94;;;11.32;100.00
62712;BME280;48772;55.586;37.730;2023-03-23T06:55:38;98969.63;;;11.35;100.00
62712;BME280;48772;55.586;37.730;2023-03-23T06:58:08;98953.06;;;11.77;100.00
62712;BME280;48772;55.586;37.730;2023-03-23T07:00:34;98964.56;;;11.51;100.00
62712;BME280;48772;55.586;37.730;2023-03-23T07:03:00;98949.34;;;11.51;100.00
62712;BME280;48772;55.586;37.730;2023-03-23T07:05:26;98969.81;;;11.79;100.00
62712;BME280;48772;55.586;37.730;2023-03-23T07:07:53;98948.78;;;11.67;100.00
62712;BME280;48772;55.586;37.730;2023-03-23T07:10:28;98956.50;;;12.24;100.00
62712;BME280;48772;55.586;37.730;2023-03-23T07:12:54;98943.78;;;12.70;100.00
62712;BME280;48772;55.586;37.730;2023-03-23T07:15:21;98942.38;;;12.84;100.00
62712;BME280;48772;55.586;37.730;2023-03-23T07:17:50;98942.97;;;13.13;100.00
62712;BME280;48772;55.586;37.730;2023-03-23T07:20:26;98944.59;;;12.88;100.00
62712;BME280;48772;55.586;37.730;2023-03-23T07:22:53;98947.03;;;12.47;100.00
62712;BME280;48772;55.586;37.730;2023-03-23T07:25:32;98893.09;;;12.16;100.00
62712;BME280;48772;55.586;37.730;2023-03-23T07:28:00;98909.13;;;12.69;100.00
62712;BME280;48772;55.586;37.730;2023-03-23T07:30:26;98917.22;;;13.12;100.00
62712;BME280;48772;55.586;37.730;2023-03-23T07:32:55;98910.53;;;13.16;100.00
62712;BME280;48772;55.586;37.730;2023-03-23T07:35:21;98913.31;;;13.32;100.00
62712;BME280;48772;55.586;37.730;2023-03-23T07:38:07;98919.31;;;13.26;100.00
62712;BME280;48772;55.586;37.730;2023-03-23T07:40:35;98938.69;;;13.79;100.00
62712;BME280;48772;55.586;37.730;2023-03-23T07:43:07;98911.13;;;13.61;100.00
62712;BME280;48772;55.586;37.730;2023-03-23T07:45:53;98937.19;;;13.51;100.00
62712;BME280;48772;55.586;37.730;2023-03-23T07:48:22;98915.88;;;13.42;100.00
62712;BME280;48772;55.586;37.730;2023-03-23T07:50:48;98944.56;;;13.49;100.00
62712;BME280;48772;55.586;37.730;2023-03-23T07:53:16;98886.72;;;13.38;100.00
62712;BME280;48772;55.586;37.730;2023-03-23T07:55:46;98907.38;;;13.46;100.00
62712;BME280;48772;55.586;37.730;2023-03-23T07:58:41;98896.78;;;13.11;100.00
62712;BME280;48772;55.586;37.730;2023-03-23T08:01:07;98926.16;;;13.03;100.00
62712;BME280;48772;55.586;37.730;2023-03-23T08:03:35;98914.06;;;13.42;100.00
62712;BME280;48772;55.586;37.730;2023-03-23T08:06:32;98910.16;;;13.11;100.00
62712;BME280;48772;55.586;37.730;2023-03-23T08:09:20;98882.50;;;13.54;100.00
62712;BME280;48772;55.586;37.730;2023-03-23T08:12:01;98912.88;;;13.70;100.00
62712;BME280;48772;55.586;37.730;2023-03-23T08:14:47;98871.16;;;13.34;100.00
62712;BME280;48772;55.586;37.730;2023-03-23T08:17:45;98893.72;;;13.57;100.00
62712;BME280;48772;55.586;37.730;2023-03-23T08:20:48;98885.13;;;13.87;100.00
62712;BME280;48772;55.586;37.730;2023-03-23T08:23:40;98870.56;;;14.55;100.00
62712;BME280;48772;55.586;37.730;2023-03-23T08:26:24;98893.69;;;14.48;100.00
62712;BME280;48772;55.586;37.730;2023-03-23T08:28:51;98894.75;;;14.14;100.00
62712;BME280;48772;55.586;37.730;2023-03-23T08:31:35;98897.59;;;14.04;100.00
62712;BME280;48772;55.586;37.730;2023-03-23T08:34:10;98890.91;;;14.16;100.00
62712;BME280;48772;55.586;37.730;2023-03-23T08:36:44;98893.00;;;14.46;100.00
62712;BME280;48772;55.586;37.730;2023-03-23T08:39:27;98871.69;;;14.45;100.00
62712;BME280;48772;55.586;37.730;2023-03-23T08:42:14;98872.56;;;14.85;98.98
62712;BME280;48772;55.586;37.730;2023-03-23T08:44:56;98903.25;;;14.59;97.38
62712;BME280;48772;55.586;37.730;2023-03-23T08:47:40;98876.59;;;14.89;96.81
62712;BME280;48772;55.586;37.730;2023-03-23T08:50:27;98854.22;;;15.21;96.04
62712;BME280;48772;55.586;37.730;2023-03-23T08:53:03;98853.09;;;15.62;89.46
62712;BME280;48772;55.586;37.730;2023-03-23T08:55:38;98859.91;;;15.42;87.62
62712;BME280;48772;55.586;37.730;2023-03-23T08:58:14;98850.91;;;15.65;88.54
62712;BME280;48772;55.586;37.730;2023-03-23T09:01:01;98852.88;;;15.79;85.50
62712;BME280;48772;55.586;37.730;2023-03-23T09:03:42;98836.13;;;16.00;81.01
62712;BME280;48772;55.586;37.730;2023-03-23T09:06:25;98831.53;;;15.78;79.88
62712;BME280;48772;55.586;37.730;2023-03-23T09:08:51;98847.59;;;15.55;84.78
62712;BME280;48772;55.586;37.730;2023-03-23T09:11:18;98830.88;;;16.06;81.82
62712;BME280;48772;55.586;37.730;2023-03-23T09:13:44;98802.94;;;15.85;79.74
62712;BME280;48772;55.586;37.730;2023-03-23T09:16:09;98830.06;;;15.98;79.77
62712;BME280;48772;55.586;37.730;2023-03-23T09:18:36;98831.38;;;15.79;78.22
62712;BME280;48772;55.586;37.730;2023-03-23T09:21:02;98800.94;;;16.09;78.17
62712;BME280;48772;55.586;37.730;2023-03-23T09:23:29;98802.50;;;16.72;71.59
62712;BME280;48772;55.586;37.730;2023-03-23T09:25:55;98814.47;;;16.47;72.61
62712;BME280;48772;55.586;37.730;2023-03-23T09:28:21;98820.78;;;16.31;73.28
62712;BME280;48772;55.586;37.730;2023-03-23T09:30:47;98802.72;;;16.39;70.47
62712;BME280;48772;55.586;37.730;2023-03-23T09:33:15;98810.63;;;16.18;73.68
62712;BME280;48772;55.586;37.730;2023-03-23T09:35:41;98789.72;;;16.51;72.44
62712;BME280;48772;55.586;37.730;2023-03-23T09:38:09;98782.41;;;16.60;70.29
62712;BME280;48772;55.586;37.730;2023-03-23T09:40:54;98785.75;;;17.13;65.46
62712;BME280;48772;55.586;37.730;2023-03-23T09:49:13;98754.75;;;16.66;67.86
62712;BME280;48772;55.586;37.730;2023-03-23T09:51:45;98762.44;;;17.20;65.32
62712;BME280;48772;55.586;37.730;2023-03-23T09:57:03;98777.47;;;17.15;61.82
62712;BME280;48772;55.586;37.730;2023-03-23T09:59:35;98759.25;;;17.46;61.17
62712;BME280;48772;55.586;37.730;2023-03-23T10:02:15;98756.19;;;17.20;61.91
62712;BME280;48772;55.586;37.730;2023-03-23T10:04:48;98747.56;;;17.53;59.76
62712;BME280;48772;55.586;37.730;2023-03-23T10:07:22;98741.13;;;17.90;58.87
62712;BME280;48772;55.586;37.730;2023-03-23T10:09:52;98739.09;;;17.92;56.90
62712;BME280;48772;55.586;37.730;2023-03-23T10:17:30;98732.31;;;17.46;59.32
62712;BME280;48772;55.586;37.730;2023-03-23T10:22:48;98719.88;;;17.16;58.90
62712;BME280;48772;55.586;37.730;2023-03-23T10:25:21;98727.59;;;17.69;57.58
62712;BME280;48772;55.586;37.730;2023-03-23T10:27:56;98702.63;;;17.81;56.45
62712;BME280;48772;55.586;37.730;2023-03-23T10:30:26;98689.75;;;17.27;57.88
62712;BME280;48772;55.586;37.730;2023-03-23T10:33:25;98700.81;;;18.03;54.55
62712;BME280;48772;55.586;37.730;2023-03-23T10:36:03;98722.13;;;18.19;52.24
62712;BME280;48772;55.586;37.730;2023-03-23T10:38:40;98683.06;;;18.36;51.63
62712;BME280;48772;55.586;37.730;2023-03-23T10:41:16;98695.97;;;18.19;51.29
62712;BME280;48772;55.586;37.730;2023-03-23T10:43:44;98696.34;;;17.95;52.97
62712;BME280;48772;55.586;37.730;2023-03-23T10:46:21;98660.28;;;17.75;52.08
62712;BME280;48772;55.586;37.730;2023-03-23T10:48:49;98692.94;;;18.29;51.01
62712;BME280;48772;55.586;37.730;2023-03-23T10:51:21;98690.91;;;18.10;50.82
62712;BME280;48772;55.586;37.730;2023-03-23T10:53:56;98693.72;;;17.81;52.33
62712;BME280;48772;55.586;37.730;2023-03-23T11:02:07;98719.09;;;17.86;51.23
62712;BME280;48772;55.586;37.730;2023-03-23T11:04:38;98715.91;;;17.62;51.19
62712;BME280;48772;55.586;37.730;2023-03-23T11:07:21;98710.72;;;17.81;51.39
62712;BME280;48772;55.586;37.730;2023-03-23T11:09:55;98689.09;;;18.17;50.28
62712;BME280;48772;55.586;37.730;2023-03-23T11:12:22;98727.91;;;17.95;50.57
62712;BME280;48772;55.586;37.730;2023-03-23T11:14:49;98709.81;;;18.10;50.37
62712;BME280;48772;55.586;37.730;2023-03-23T11:17:25;98709.03;;;17.95;49.61
62712;BME280;48772;55.586;37.730;2023-03-23T11:19:52;98689.84;;;17.69;50.25
62712;BME280;48772;55.586;37.730;2023-03-23T11:22:30;98699.88;;;17.75;49.19
62712;BME280;48772;55.586;37.730;2023-03-23T11:25:00;98702.13;;;17.92;49.48
62712;BME280;48772;55.586;37.730;2023-03-23T11:27:28;98682.94;;;17.81;50.23
62712;BME280;48772;55.586;37.730;2023-03-23T11:30:09;98681.41;;;17.93;49.94
62712;BME280;48772;55.586;37.730;2023-03-23T11:32:36;98674.09;;;17.66;50.72
62712;BME280;48772;55.586;37.730;2023-03-23T11:35:05;98682.84;;;17.39;50.68
62712;BME280;48772;55.586;37.730;2023-03-23T11:38:03;98682.84;;;17.74;51.02
62712;BME280;48772;55.586;37.730;2023-03-23T11:40:31;98714.19;;;17.54;49.82
62712;BME280;48772;55.586;37.730;2023-03-23T11:43:09;98683.75;;;17.81;49.87
62712;BME280;48772;55.586;37.730;2023-03-23T11:45:40;98684.50;;;17.40;50.93
62712;BME280;48772;55.586;37.730;2023-03-23T12:35:42;98657.88;;;15.91;71.93
62712;BME280;48772;55.586;37.730;2023-03-23T12:41:22;98687.63;;;16.64;64.05
62712;BME280;48772;55.586;37.730;2023-03-23T12:44:05;98692.06;;;15.60;69.60
62712;BME280;48772;55.586;37.730;2023-03-23T12:49:29;98684.81;;;14.92;78.67
62712;BME280;48772;55.586;37.730;2023-03-23T12:52:02;98656.59;;;15.04;79.85
62712;BME280;48772;55.586;37.730;2023-03-23T12:54:39;98637.44;;;14.99;79.10
62712;BME280;48772;55.586;37.730;2023-03-23T12:57:10;98669.13;;;15.11;78.46
62712;BME280;48772;55.586;37.730;2023-03-23T13:00:12;98681.50;;;14.82;80.63
62712;BME280;48772;55.586;37.730;2023-03-23T13:05:42;98675.38;;;14.17;88.83
62712;BME280;48772;55.586;37.730;2023-03-23T13:08:19;98665.38;;;14.11;91.42
62712;BME280;48772;55.586;37.730;2023-03-23T13:10:48;98665.69;;;14.16;91.00
62712;BME280;48772;55.586;37.730;2023-03-23T13:13:19;98662.84;;;14.18;92.05
62712;BME280;48772;55.586;37.730;2023-03-23T13:19:13;98670.19;;;13.68;97.56
62712;BME280;48772;55.586;37.730;2023-03-23T13:22:06;98652.78;;;13.64;99.97
62712;BME280;48772;55.586;37.730;2023-03-23T13:24:41;98639.88;;;13.51;100.00
62712;BME280;48772;55.586;37.730;2023-03-23T13:27:09;98646.78;;;13.54;100.00
62712;BME280;48772;55.586;37.730;2023-03-23T13:29:44;98632.22;;;13.56;100.00
62712;BME280;48772;55.586;37.730;2023-03-23T13:32:18;98631.53;;;13.54;100.00
62712;BME280;48772;55.586;37.730;2023-03-23T13:34:46;98642.94;;;13.56;100.00
62712;BME280;48772;55.586;37.730;2023-03-23T13:40:13;98648.28;;;13.64;100.00
62712;BME280;48772;55.586;37.730;2023-03-23T13:42:55;98615.63;;;13.37;100.00
62712;BME280;48772;55.586;37.730;2023-03-23T13:47:50;98641.06;;;13.41;100.00
62712;BME280;48772;55.586;37.730;2023-03-23T13:50:29;98671.53;;;13.40;100.00
62712;BME280;48772;55.586;37.730;2023-03-23T13:53:00;98659.25;;;13.29;100.00
62712;BME280;48772;55.586;37.730;2023-03-23T14:03:17;98681.63;;;12.70;100.00
62712;BME280;48772;55.586;37.730;2023-03-23T14:11:00;98648.94;;;12.59;100.00
62712;BME280;48772;55.586;37.730;2023-03-23T14:13:51;98635.53;;;12.51;100.00
62712;BME280;48772;55.586;37.730;2023-03-23T14:16:24;98633.00;;;12.41;100.00
62712;BME280;48772;55.586;37.730;2023-03-23T14:18:55;98599.56;;;12.12;100.00
62712;BME280;48772;55.586;37.730;2023-03-23T14:21:37;98618.34;;;12.20;100.00
62712;BME280;48772;55.586;37.730;2023-03-23T14:24:15;98659.53;;;12.35;100.00
62712;BME280;48772;55.586;37.730;2023-03-23T14:26:41;98669.53;;;12.33;100.00
62712;BME280;48772;55.586;37.730;2023-03-23T14:29:11;98632.97;;;12.33;100.00
62712;BME280;48772;55.586;37.730;2023-03-23T14:31:38;98607.69;;;12.28;100.00
62712;BME280;48772;55.586;37.730;2023-03-23T14:34:13;98610.66;;;12.17;100.00
62712;BME280;48772;55.586;37.730;2023-03-23T14:36:40;98619.56;;;12.25;100.00
62712;BME280;48772;55.586;37.730;2023-03-23T14:39:16;98628.03;;;12.21;100.00
62712;BME280;48772;55.586;37.730;2023-03-23T14:41:42;98632.94;;;12.08;100.00
62712;BME280;48772;55.586;37.730;2023-03-23T14:44:24;98639.56;;;11.96;100.00
62712;BME280;48772;55.586;37.730;2023-03-23T14:46:50;98611.28;;;11.85;100.00
62712;BME280;48772;55.586;37.730;2023-03-23T14:49:19;98625.44;;;11.86;100.00
62712;BME280;48772;55.586;37.730;2023-03-23T14:51:52;98609.13;;;11.89;100.00
62712;BME280;48772;55.586;37.730;2023-03-23T14:54:24;98555.06;;;11.52;100.00
62712;BME280;48772;55.586;37.730;2023-03-23T14:56:50;98623.19;;;11.73;100.00
62712;BME280;48772;55.586;37.730;2023-03-23T14:59:16;98606.03;;;11.76;100.00
62712;BME280;48772;55.586;37.730;2023-03-23T15:01:42;98603.72;;;11.81;100.00
62712;BME280;48772;55.586;37.730;2023-03-23T15:04:23;98599.09;;;11.65;100.00
62712;BME280;48772;55.586;37.730;2023-03-23T15:06:56;98587.25;;;11.68;100.00
62712;BME280;48772;55.586;37.730;2023-03-23T15:09:24;98587.34;;;11.76;100.00
62712;BME280;48772;55.586;37.730;2023-03-23T15:12:00;98592.44;;;11.69;100.00
62712;BME280;48772;55.586;37.730;2023-03-23T15:14:32;98590.09;;;11.66;100.00
62712;BME280;48772;55.586;37.730;2023-03-23T15:16:59;98590.78;;;11.68;100.00
62712;BME280;48772;55.586;37.730;2023-03-23T15:19:36;98577.50;;;11.59;100.00
62712;BME280;48772;55.586;37.730;2023-03-23T15:24:39;98581.72;;;11.44;100.00
62712;BME280;48772;55.586;37.730;2023-03-23T15:27:22;98571.13;;;11.17;100.00
62712;BME280;48772;55.586;37.730;2023-03-23T15:29:54;98591.38;;;11.45;100.00
62712;BME280;48772;55.586;37.730;2023-03-23T15:32:30;98575.25;;;11.29;100.00
62712;BME280;48772;55.586;37.730;2023-03-23T15:34:57;98558.56;;;11.09;100.00
62712;BME280;48772;55.586;37.730;2023-03-23T15:37:30;98593.22;;;11.27;100.00
62712;BME280;48772;55.586;37.730;2023-03-23T15:39:58;98596.59;;;11.29;100.00
62712;BME280;48772;55.586;37.730;2023-03-23T15:50:18;98593.31;;;11.17;100.00
62712;BME280;48772;55.586;37.730;2023-03-23T15:52:45;98584.44;;;11.17;100.00
62712;BME280;48772;55.586;37.730;2023-03-23T15:55:28;98577.06;;;11.11;100.00
62712;BME280;48772;55.586;37.730;2023-03-23T15:57:56;98570.66;;;11.04;100.00
62712;BME280;48772;55.586;37.730;2023-03-23T16:00:27;98560.22;;;10.93;100.00
62712;BME280;48772;55.586;37.730;2023-03-23T16:03:01;98559.53;;;10.91;100.00
62712;BME280;48772;55.586;37.730;2023-03-23T16:05:28;98581.34;;;11.04;100.00
62712;BME280;48772;55.586;37.730;2023-03-23T16:07:55;98585.00;;;11.03;100.00
62712;BME280;48772;55.586;37.730;2023-03-23T16:10:23;98586.13;;;11.00;100.00
62712;BME280;48772;55.586;37.730;2023-03-23T16:12:49;98566.22;;;10.95;100.00
62712;BME280;48772;55.586;37.730;2023-03-23T16:15:16;98571.91;;;10.92;100.00
62712;BME280;48772;55.586;37.730;2023-03-23T16:17:42;98578.28;;;10.99;100.00
62712;BME280;48772;55.586;37.730;2023-03-23T16:20:14;98569.59;;;10.97;100.00
62712;BME280;48772;55.586;37.730;2023-03-23T16:22:40;98549.78;;;10.82;100.00
62712;BME280;48772;55.586;37.730;2023-03-23T16:25:07;98559.00;;;10.87;100.00
62712;BME280;48772;55.586;37.730;2023-03-23T16:27:33;98550.94;;;10.79;100.00
62712;BME280;48772;55.586;37.730;2023-03-23T16:29:59;98555.19;;;10.72;100.00
62712;BME280;48772;55.586;37.730;2023-03-23T16:32:29;98593.13;;;10.84;100.00
62712;BME280;48772;55.586;37.730;2023-03-23T16:34:55;98562.19;;;10.73;100.00
62712;BME280;48772;55.586;37.730;2023-03-23T16:37:22;98559.97;;;10.69;100.00
62712;BME280;48772;55.586;37.730;2023-03-23T16:39:48;98584.66;;;10.71;100.00
62712;BME280;48772;55.586;37.730;2023-03-23T16:42:14;98585.81;;;10.68;100.00
62712;BME280;48772;55.586;37.730;2023-03-23T16:44:40;98563.47;;;10.52;100.00
62712;BME280;48772;55.586;37.730;2023-03-23T16:47:06;98579.91;;;10.65;100.00
62712;BME280;48772;55.586;37.730;2023-03-23T16:49:31;98564.28;;;10.52;100.00
62712;BME280;48772;55.586;37.730;2023-03-23T16:52:07;98578.06;;;10.48;100.00
62712;BME280;48772;55.586;37.730;2023-03-23T16:54:33;98577.06;;;10.49;100.00
62712;BME280;48772;55.586;37.730;2023-03-23T16:56:59;98530.53;;;10.16;100.00
62712;BME280;48772;55.586;37.730;2023-03-23T16:59:27;98570.06;;;10.48;100.00
62712;BME280;48772;55.586;37.730;2023-03-23T17:01:53;98565.81;;;10.28;100.00
62712;BME280;48772;55.586;37.730;2023-03-23T17:04:19;98571.66;;;10.41;100.00
62712;BME280;48772;55.586;37.730;2023-03-23T17:06:45;98570.72;;;10.32;100.00
62712;BME280;48772;55.586;37.730;2023-03-23T17:09:11;98563.53;;;10.33;100.00
62712;BME280;48772;55.586;37.730;2023-03-23T17:11:37;98537.00;;;10.13;100.00
62712;BME280;48772;55.586;37.730;2023-03-23T17:14:02;98586.28;;;10.27;100.00
62712;BME280;48772;55.586;37.730;2023-03-23T17:16:28;98531.56;;;10.05;100.00
62712;BME280;48772;55.586;37.730;2023-03-23T17:18:54;98568.09;;;10.23;100.00
62712;BME280;48772;55.586;37.730;2023-03-23T17:21:20;98530.81;;;10.03;100.00
62712;BME280;48772;55.586;37.730;2023-03-23T17:23:50;98564.72;;;10.21;100.00
62712;BME280;48772;55.586;37.730;2023-03-23T17:26:16;98551.13;;;10.24;100.00
62712;BME280;48772;55.586;37.730;2023-03-23T17:28:42;98542.97;;;10.25;100.00
62712;BME280;48772;55.586;37.730;2023-03-23T17:31:07;98548.75;;;10.21;100.00
62712;BME280;48772;55.586;37.730;2023-03-23T17:33:33;98540.59;;;10.22;100.00
62712;BME280;48772;55.586;37.730;2023-03-23T17:35:59;98523.97;;;10.10;100.00
62712;BME280;48772;55.586;37.730;2023-03-23T17:38:25;98526.78;;;9.99;100.00
62712;BME280;48772;55.586;37.730;2023-03-23T17:40:56;98526.34;;;10.04;100.00
62712;BME280;48772;55.586;37.730;2023-03-23T17:43:22;98527.63;;;10.09;100.00
62712;BME280;48772;55.586;37.730;2023-03-23T17:45:47;98526.50;;;10.02;100.00
62712;BME280;48772;55.586;37.730;2023-03-23T17:48:13;98517.69;;;9.92;100.00
62712;BME280;48772;55.586;37.730;2023-03-23T17:50:39;98494.25;;;9.78;100.00
62712;BME280;48772;55.586;37.730;2023-03-23T17:53:08;98501.53;;;9.76;100.00
62712;BME280;48772;55.586;37.730;2023-03-23T17:55:34;98498.47;;;9.71;100.00
62712;BME280;48772;55.586;37.730;2023-03-23T17:57:59;98490.88;;;9.76;100.00
62712;BME280;48772;55.586;37.730;2023-03-23T18:00:25;98482.56;;;9.52;100.00
62712;BME280;48772;55.586;37.730;2023-03-23T18:02:51;98496.19;;;9.76;100.00
62712;BME280;48772;55.586;37.730;2023-03-23T18:05:17;98491.00;;;9.75;100.00
62712;BME280;48772;55.586;37.730;2023-03-23T18:07:42;98499.44;;;9.70;100.00
62712;BME280;48772;55.586;37.730;2023-03-23T18:10:08;98503.50;;;9.65;100.00
62712;BME280;48772;55.586;37.730;2023-03-23T18:12:39;98502.97;;;9.61;100.00
62712;BME280;48772;55.586;37.730;2023-03-23T18:15:11;98519.66;;;9.63;100.00
62712;BME280;48772;55.586;37.730;2023-03-23T18:17:37;98502.69;;;9.64;100.00
62712;BME280;48772;55.586;37.730;2023-03-23T18:20:04;98474.41;;;9.54;100.00
62712;BME280;48772;55.586;37.730;2023-03-23T18:22:30;98463.53;;;9.47;100.00
62712;BME280;48772;55.586;37.730;2023-03-23T18:24:56;98473.78;;;9.42;100.00
62712;BME280;48772;55.586;37.730;2023-03-23T18:27:23;98480.09;;;9.41;100.00
62712;BME280;48772;55.586;37.730;2023-03-23T18:29:48;98454.88;;;9.26;100.00
62712;BME280;48772;55.586;37.730;2023-03-23T18:32:14;98461.75;;;9.38;100.00
62712;BME280;48772;55.586;37.730;2023-03-23T18:34:42;98459.94;;;9.29;100.00
62712;BME280;48772;55.586;37.730;2023-03-23T18:37:09;98466.38;;;9.27;100.00
62712;BME280;48772;55.586;37.730;2023-03-23T18:39:35;98451.41;;;9.26;100.00
62712;BME280;48772;55.586;37.730;2023-03-23T18:42:03;98457.97;;;9.31;100.00
62712;BME280;48772;55.586;37.730;2023-03-23T18:44:29;98458.41;;;9.27;100.00
62712;BME280;48772;55.586;37.730;2023-03-23T18:46:54;98461.06;;;9.27;100.00
62712;BME280;48772;55.586;37.730;2023-03-23T18:49:21;98451.56;;;9.24;100.00
62712;BME280;48772;55.586;37.730;2023-03-23T18:51:46;98444.56;;;9.23;100.00
62712;BME280;48772;55.586;37.730;2023-03-23T18:54:12;98473.38;;;9.28;100.00
62712;BME280;48772;55.586;37.730;2023-03-23T18:56:38;98447.78;;;9.17;100.00
62712;BME280;48772;55.586;37.730;2023-03-23T18:59:04;98450.06;;;9.12;100.00
62712;BME280;48772;55.586;37.730;2023-03-23T19:01:31;98449.59;;;9.17;100.00
62712;BME280;48772;55.586;37.730;2023-03-23T19:03:56;98453.09;;;9.17;100.00
62712;BME280;48772;55.586;37.730;2023-03-23T19:06:25;98455.50;;;9.11;100.00
62712;BME280;48772;55.586;37.730;2023-03-23T19:08:53;98445.00;;;9.09;100.00
62712;BME280;48772;55.586;37.730;2023-03-23T19:11:21;98447.25;;;9.14;100.00
62712;BME280;48772;55.586;37.730;2023-03-23T19:13:48;98443.03;;;9.11;100.00
62712;BME280;48772;55.586;37.730;2023-03-23T19:16:14;98449.91;;;9.04;100.00
62712;BME280;48772;55.586;37.730;2023-03-23T19:18:40;98444.75;;;9.03;100.00
62712;BME280;48772;55.586;37.730;2023-03-23T19:21:05;98427.84;;;8.85;100.00
62712;BME280;48772;55.586;37.730;2023-03-23T19:23:31;98428.38;;;8.98;100.00
62712;BME280;48772;55.586;37.730;2023-03-23T19:25:57;98431.19;;;8.96;100.00
62712;BME280;48772;55.586;37.730;2023-03-23T19:28:23;98446.56;;;9.02;100.00
62712;BME280;48772;55.586;37.730;2023-03-23T19:30:53;98414.97;;;8.90;100.00
62712;BME280;48772;55.586;37.730;2023-03-23T19:33:19;98394.81;;;8.87;100.00
62712;BME280;48772;55.586;37.730;2023-03-23T19:35:51;98419.72;;;8.96;100.00
62712;BME280;48772;55.586;37.730;2023-03-23T19:38:19;98422.25;;;8.97;100.00
62712;BME280;48772;55.586;37.730;2023-03-23T19:40:51;98419.44;;;8.89;100.00
62712;BME280;48772;55.586;37.730;2023-03-23T19:43:17;98401.09;;;8.86;100.00
62712;BME280;48772;55.586;37.730;2023-03-23T19:45:43;98407.81;;;9.00;100.00
62712;BME280;48772;55.586;37.730;2023-03-23T19:48:09;98408.22;;;9.05;100.00
62712;BME280;48772;55.586;37.730;2023-03-23T19:50:35;98397.56;;;9.05;100.00
62712;BME280;48772;55.586;37.730;2023-03-23T19:53:03;98359.41;;;8.87;100.00